createdAt,value
2023-06-25T00:00:51.686Z,18.00
2023-06-25T00:01:51.772Z,17.80
2023-06-25T00:02:51.707Z,18.50
2023-06-25T00:03:51.701Z,18.20
2023-06-25T00:04:51.650Z,17.90
2023-06-25T00:05:51.644Z,18.60
2023-06-25T00:06:51.785Z,19.80
2023-06-25T00:07:51.638Z,20.00
2023-06-25T00:08:51.592Z,18.50
2023-06-25T00:09:51.591Z,21.20
2023-06-25T00:10:51.590Z,19.50
2023-06-25T00:11:51.671Z,21.30
2023-06-25T00:12:51.582Z,18.00
2023-06-25T00:13:51.552Z,20.60
2023-06-25T00:14:51.556Z,20.20
2023-06-25T00:15:51.525Z,19.60
2023-06-25T00:16:51.612Z,18.70
2023-06-25T00:17:51.654Z,19.30
2023-06-25T00:18:51.498Z,21.00
2023-06-25T00:19:51.493Z,18.80
2023-06-25T00:20:51.491Z,19.40
2023-06-25T00:21:51.554Z,19.10
2023-06-25T00:23:51.465Z,18.40
2023-06-25T00:24:51.458Z,18.40
2023-06-25T00:25:51.411Z,18.60
2023-06-25T00:26:51.494Z,18.40
2023-06-25T00:27:51.400Z,18.10
2023-06-25T00:28:51.452Z,19.10
2023-06-25T00:29:51.385Z,18.50
2023-06-25T00:30:51.379Z,19.30
2023-06-25T00:31:51.357Z,20.20
2023-06-25T00:32:51.480Z,19.00
2023-06-25T00:33:51.364Z,18.10
2023-06-25T00:34:51.415Z,18.10
2023-06-25T00:35:51.337Z,22.10
2023-06-25T00:36:51.338Z,18.20
2023-06-25T00:37:51.319Z,19.20
2023-06-25T00:38:51.380Z,18.20
2023-06-25T00:39:51.270Z,19.20
2023-06-25T00:40:51.286Z,20.70
2023-06-25T00:41:51.279Z,20.40
2023-06-25T00:42:51.259Z,18.60
2023-06-25T00:43:51.329Z,17.90
2023-06-25T00:44:51.240Z,20.80
2023-06-25T00:45:51.213Z,19.50
2023-06-25T00:46:51.283Z,18.60
2023-06-25T00:47:51.237Z,19.70
2023-06-25T00:48:51.202Z,19.90
2023-06-25T00:49:51.225Z,20.10
2023-06-25T00:50:51.249Z,19.50
2023-06-25T00:51:51.163Z,18.80
2023-06-25T00:52:51.161Z,19.40
2023-06-25T00:53:51.118Z,20.10
2023-06-25T00:54:51.116Z,21.30
2023-06-25T00:55:51.105Z,20.90
2023-06-25T00:56:51.025Z,19.50
2023-06-25T00:57:51.114Z,20.70
2023-06-25T00:58:51.066Z,18.80
2023-06-25T00:59:51.165Z,19.20
2023-06-25T01:00:51.084Z,19.20
2023-06-25T01:01:51.084Z,18.60
2023-06-25T01:02:51.143Z,18.80
2023-06-25T01:03:51.056Z,18.60
2023-06-25T01:04:51.096Z,19.10
2023-06-25T01:06:00.256Z,18.90
2023-06-25T01:06:51.097Z,18.80
2023-06-25T01:07:51.056Z,19.60
2023-06-25T01:08:51.100Z,18.40
2023-06-25T01:09:50.866Z,20.80
2023-06-25T01:10:50.863Z,20.80
2023-06-25T01:11:51.026Z,18.10
2023-06-25T01:12:51.047Z,18.80
2023-06-25T01:13:50.902Z,19.90
2023-06-25T01:14:50.920Z,20.40
2023-06-25T01:15:50.914Z,18.90
2023-06-25T01:16:50.884Z,20.90
2023-06-25T01:17:50.972Z,19.00
2023-06-25T01:19:02.507Z,20.60
2023-06-25T01:19:50.864Z,19.20
2023-06-25T01:20:50.733Z,19.70
2023-06-25T01:21:50.939Z,19.10
2023-06-25T01:22:50.888Z,19.00
2023-06-25T01:23:50.806Z,20.00
2023-06-25T01:24:50.842Z,19.70
2023-06-25T01:25:50.805Z,20.40
2023-06-25T01:26:50.792Z,20.70
2023-06-25T01:27:50.862Z,20.40
2023-06-25T01:28:50.764Z,20.30
2023-06-25T01:29:50.761Z,18.70
2023-06-25T01:30:50.756Z,22.20
2023-06-25T01:31:50.753Z,19.90
2023-06-25T01:32:50.771Z,20.20
2023-06-25T01:33:50.803Z,21.10
2023-06-25T01:34:50.701Z,18.80
2023-06-25T01:35:50.696Z,18.90
2023-06-25T01:36:50.688Z,20.70
2023-06-25T01:37:50.676Z,19.70
2023-06-25T01:38:50.748Z,21.10
2023-06-25T01:39:50.651Z,20.80
2023-06-25T01:40:50.654Z,20.80
2023-06-25T01:41:50.637Z,20.80
2023-06-25T01:42:50.602Z,21.20
2023-06-25T01:43:50.667Z,21.20
2023-06-25T01:44:50.576Z,23.00
2023-06-25T01:45:50.688Z,19.00
2023-06-25T01:46:50.591Z,20.60
2023-06-25T01:47:50.670Z,20.00
2023-06-25T01:48:50.538Z,21.20
2023-06-25T01:49:50.612Z,19.90
2023-06-25T01:50:50.604Z,21.00
2023-06-25T01:51:50.526Z,19.90
2023-06-25T01:52:50.530Z,19.40
2023-06-25T01:53:50.494Z,20.10
2023-06-25T01:54:50.487Z,20.10
2023-06-25T01:55:50.581Z,21.10
2023-06-25T01:56:50.484Z,19.00
2023-06-25T01:57:50.471Z,19.80
2023-06-25T01:58:50.461Z,21.50
2023-06-25T01:59:50.442Z,20.70
2023-06-25T02:00:50.412Z,21.70
2023-06-25T02:01:50.646Z,18.90
2023-06-25T02:02:50.500Z,21.50
2023-06-25T02:03:50.508Z,20.50
2023-06-25T02:04:50.396Z,18.80
2023-06-25T02:05:50.399Z,22.20
2023-06-25T02:06:50.508Z,21.80
2023-06-25T02:07:50.364Z,19.90
2023-06-25T02:08:50.359Z,18.50
2023-06-25T02:09:50.343Z,21.00
2023-06-25T02:10:50.344Z,20.20
2023-06-25T02:11:50.311Z,21.40
2023-06-25T02:12:50.392Z,21.70
2023-06-25T02:13:50.303Z,20.90
2023-06-25T02:14:50.297Z,20.60
2023-06-25T02:15:50.289Z,19.90
2023-06-25T02:16:50.251Z,21.40
2023-06-25T02:17:50.353Z,19.80
2023-06-25T02:18:50.239Z,22.80
2023-06-25T02:19:50.259Z,20.90
2023-06-25T02:20:50.170Z,21.50
2023-06-25T02:21:50.219Z,22.50
2023-06-25T02:22:50.219Z,22.60
2023-06-25T02:23:50.133Z,19.50
2023-06-25T02:24:50.215Z,21.90
2023-06-25T02:25:50.100Z,22.50
2023-06-25T02:26:50.101Z,21.20
2023-06-25T02:27:50.071Z,21.90
2023-06-25T02:28:50.173Z,21.20
2023-06-25T02:29:50.156Z,22.20
2023-06-25T02:30:50.056Z,23.30
2023-06-25T02:31:50.132Z,21.90
2023-06-25T02:32:50.110Z,21.70
2023-06-25T02:33:50.014Z,19.90
2023-06-25T02:34:50.098Z,20.10
2023-06-25T02:35:50.019Z,20.00
2023-06-25T02:36:49.987Z,19.90
2023-06-25T02:37:50.002Z,20.00
2023-06-25T02:38:49.977Z,20.90
2023-06-25T02:39:50.047Z,20.00
2023-06-25T02:40:50.002Z,21.20
2023-06-25T02:41:50.049Z,21.50
2023-06-25T02:42:49.942Z,21.00
2023-06-25T02:43:49.903Z,19.50
2023-06-25T02:44:49.933Z,22.80
2023-06-25T02:45:49.958Z,19.80
2023-06-25T02:46:49.903Z,19.70
2023-06-25T02:47:49.955Z,21.40
2023-06-25T02:48:49.901Z,20.20
2023-06-25T02:49:49.864Z,20.80
2023-06-25T02:50:49.843Z,20.50
2023-06-25T02:51:49.907Z,19.50
2023-06-25T02:52:49.848Z,21.40
2023-06-25T02:53:49.833Z,19.30
2023-06-25T02:54:49.805Z,20.50
2023-06-25T02:55:49.818Z,20.70
2023-06-25T02:56:49.911Z,21.00
2023-06-25T02:57:49.791Z,19.60
2023-06-25T02:58:49.769Z,21.40
2023-06-25T02:59:49.774Z,21.60
2023-06-25T03:00:49.790Z,20.20
2023-06-25T03:01:49.742Z,21.20
2023-06-25T03:02:49.876Z,24.40
2023-06-25T03:03:49.800Z,19.60
2023-06-25T03:04:49.715Z,22.40
2023-06-25T03:05:49.678Z,20.70
2023-06-25T03:06:49.738Z,21.70
2023-06-25T03:07:49.745Z,21.60
2023-06-25T03:08:49.742Z,21.90
2023-06-25T03:09:49.641Z,20.70
2023-06-25T03:10:49.625Z,20.70
2023-06-25T03:11:49.624Z,20.30
2023-06-25T03:12:49.631Z,20.50
2023-06-25T03:13:49.681Z,19.90
2023-06-25T03:14:49.601Z,21.40
2023-06-25T03:15:49.599Z,21.10
2023-06-25T03:16:49.568Z,21.60
2023-06-25T03:17:49.605Z,20.40
2023-06-25T03:18:49.547Z,20.10
2023-06-25T03:19:49.622Z,19.20
2023-06-25T03:20:49.542Z,22.30
2023-06-25T03:21:49.538Z,19.70
2023-06-25T03:22:49.497Z,20.70
2023-06-25T03:23:49.505Z,21.40
2023-06-25T03:24:49.568Z,22.20
2023-06-25T03:25:49.478Z,20.70
2023-06-25T03:26:49.454Z,19.60
2023-06-25T03:27:49.452Z,21.40
2023-06-25T03:28:49.457Z,22.40
2023-06-25T03:29:49.503Z,23.40
2023-06-25T03:30:49.486Z,20.90
2023-06-25T03:31:49.430Z,19.90
2023-06-25T03:32:49.417Z,20.50
2023-06-25T03:33:49.387Z,21.90
2023-06-25T03:34:49.453Z,20.40
2023-06-25T03:35:49.386Z,21.20
2023-06-25T03:36:49.373Z,20.30
2023-06-25T03:37:49.368Z,21.60
2023-06-25T03:38:49.323Z,23.80
2023-06-25T03:39:49.351Z,21.30
2023-06-25T03:40:49.410Z,19.60
2023-06-25T03:41:49.392Z,22.60
2023-06-25T03:42:49.286Z,21.40
2023-06-25T03:43:49.300Z,19.50
2023-06-25T03:44:49.271Z,20.00
2023-06-25T03:45:49.177Z,19.60
2023-06-25T03:46:49.249Z,18.50
2023-06-25T03:47:49.440Z,20.50
2023-06-25T03:48:49.261Z,19.30
2023-06-25T03:49:49.247Z,18.30
2023-06-25T03:50:49.243Z,19.60
2023-06-25T03:51:49.300Z,19.00
2023-06-25T03:52:49.190Z,17.80
2023-06-25T03:53:49.192Z,16.80
2023-06-25T03:54:49.207Z,19.40
2023-06-25T03:55:49.192Z,17.20
2023-06-25T03:56:49.246Z,16.30
2023-06-25T03:57:49.155Z,16.50
2023-06-25T03:58:49.151Z,16.00
2023-06-25T03:59:49.137Z,15.70
2023-06-25T04:00:49.105Z,15.90
2023-06-25T04:01:49.197Z,16.00
2023-06-25T04:02:49.229Z,16.70
2023-06-25T04:03:49.171Z,16.30
2023-06-25T04:04:49.068Z,19.00
2023-06-25T04:05:49.062Z,17.40
2023-06-25T04:06:49.144Z,15.70
2023-06-25T04:07:49.064Z,16.70
2023-06-25T04:08:49.101Z,15.50
2023-06-25T04:09:49.040Z,15.20
2023-06-25T04:10:49.028Z,15.60
2023-06-25T04:11:48.988Z,15.80
2023-06-25T04:12:49.001Z,17.00
2023-06-25T04:13:49.059Z,15.10
2023-06-25T04:14:48.986Z,15.40
2023-06-25T04:15:48.961Z,15.50
2023-06-25T04:16:48.944Z,16.00
2023-06-25T04:17:48.957Z,15.60
2023-06-25T04:18:48.918Z,16.00
2023-06-25T04:19:48.990Z,16.70
2023-06-25T04:20:48.895Z,15.20
2023-06-25T04:21:48.907Z,15.50
2023-06-25T04:22:48.895Z,14.90
2023-06-25T04:23:48.871Z,16.30
2023-06-25T04:24:48.879Z,15.90
2023-06-25T04:25:48.943Z,17.50
2023-06-25T04:26:48.874Z,16.60
2023-06-25T04:27:48.852Z,15.20
2023-06-25T04:28:48.887Z,15.10
2023-06-25T04:29:48.813Z,15.20
2023-06-25T04:30:48.718Z,15.00
2023-06-25T04:31:48.883Z,16.90
2023-06-25T04:32:48.829Z,16.30
2023-06-25T04:33:48.976Z,15.90
2023-06-25T04:34:48.783Z,16.10
2023-06-25T04:35:48.740Z,14.70
2023-06-25T04:36:48.807Z,14.40
2023-06-25T04:37:48.749Z,14.40
2023-06-25T04:38:48.728Z,16.00
2023-06-25T04:39:48.807Z,14.90
2023-06-25T04:40:48.691Z,14.80
2023-06-25T04:41:48.704Z,14.60
2023-06-25T04:42:48.704Z,14.20
2023-06-25T04:43:48.719Z,14.30
2023-06-25T04:44:48.723Z,13.30
2023-06-25T04:45:48.591Z,14.50
2023-06-25T04:46:48.721Z,13.20
2023-06-25T04:47:48.661Z,13.60
2023-06-25T04:48:48.601Z,15.70
2023-06-25T04:49:48.626Z,14.90
2023-06-25T04:50:48.599Z,14.50
2023-06-25T04:51:48.600Z,14.80
2023-06-25T04:52:48.670Z,13.60
2023-06-25T04:53:48.572Z,13.60
2023-06-25T04:54:48.569Z,13.70
2023-06-25T04:55:48.566Z,13.90
2023-06-25T04:56:51.110Z,14.30
2023-06-25T04:57:48.606Z,13.50
2023-06-25T04:58:48.524Z,14.30
2023-06-25T04:59:48.502Z,14.60
2023-06-25T05:00:48.473Z,13.20
2023-06-25T05:01:48.612Z,14.10
2023-06-25T05:02:48.595Z,14.80
2023-06-25T05:03:48.573Z,13.70
2023-06-25T05:04:48.477Z,13.70
2023-06-25T05:05:48.433Z,13.80
2023-06-25T05:06:48.530Z,13.20
2023-06-25T05:07:48.421Z,13.00
2023-06-25T05:08:48.493Z,13.30
2023-06-25T05:09:48.385Z,13.60
2023-06-25T05:10:48.389Z,13.50
2023-06-25T05:11:48.387Z,13.00
2023-06-25T05:12:48.373Z,13.40
2023-06-25T05:13:48.365Z,13.40
2023-06-25T05:14:48.405Z,13.30
2023-06-25T05:15:48.351Z,14.00
2023-06-25T05:16:48.317Z,13.40
2023-06-25T05:17:48.407Z,12.70
2023-06-25T05:18:50.552Z,14.70
2023-06-25T05:19:48.309Z,13.20
2023-06-25T05:20:48.351Z,12.40
2023-06-25T05:21:48.317Z,13.30
2023-06-25T05:22:48.258Z,14.20
2023-06-25T05:23:48.262Z,13.90
2023-06-25T05:24:48.331Z,13.20
2023-06-25T05:25:48.251Z,14.80
2023-06-25T05:26:48.241Z,13.50
2023-06-25T05:27:48.221Z,14.20
2023-06-25T05:28:48.189Z,13.50
2023-06-25T05:29:48.213Z,13.50
2023-06-25T05:30:48.285Z,14.10
2023-06-25T05:31:48.277Z,13.00
2023-06-25T05:32:48.165Z,12.90
2023-06-25T05:33:48.162Z,14.30
2023-06-25T05:34:48.129Z,13.50
2023-06-25T05:35:48.149Z,14.30
2023-06-25T05:36:48.127Z,13.30
2023-06-25T05:37:48.186Z,14.10
2023-06-25T05:38:50.579Z,13.00
2023-06-25T05:39:48.074Z,13.00
2023-06-25T05:40:48.072Z,13.30
2023-06-25T05:41:48.129Z,13.50
2023-06-25T05:42:48.061Z,13.30
2023-06-25T05:43:48.048Z,13.90
2023-06-25T05:44:48.053Z,14.70
2023-06-25T05:45:48.014Z,13.90
2023-06-25T05:46:48.156Z,12.80
2023-06-25T05:47:48.125Z,14.10
2023-06-25T05:48:47.996Z,14.20
2023-06-25T05:49:48.003Z,13.50
2023-06-25T05:50:48.003Z,14.10
2023-06-25T05:51:47.974Z,14.10
2023-06-25T05:52:48.122Z,13.30
2023-06-25T05:53:47.942Z,13.80
2023-06-25T05:54:48.033Z,13.90
2023-06-25T05:55:47.924Z,13.60
2023-06-25T05:56:48.016Z,14.30
2023-06-25T05:57:47.913Z,13.00
2023-06-25T05:58:47.979Z,13.70
2023-06-25T05:59:47.999Z,13.90
2023-06-25T06:00:47.901Z,13.30
2023-06-25T06:01:47.859Z,14.00
2023-06-25T06:02:47.906Z,14.40
2023-06-25T06:03:47.938Z,14.40
2023-06-25T06:04:47.935Z,15.30
2023-06-25T06:05:47.821Z,13.30
2023-06-25T06:06:47.887Z,13.30
2023-06-25T06:07:47.830Z,14.10
2023-06-25T06:08:47.790Z,14.50
2023-06-25T06:09:47.786Z,13.40
2023-06-25T06:10:47.856Z,13.60
2023-06-25T06:11:47.780Z,13.10
2023-06-25T06:12:47.747Z,14.10
2023-06-25T06:13:47.747Z,13.00
2023-06-25T06:14:47.804Z,14.10
2023-06-25T06:15:47.815Z,12.50
2023-06-25T06:16:47.734Z,12.80
2023-06-25T06:17:47.751Z,12.30
2023-06-25T06:18:47.732Z,13.40
2023-06-25T06:19:47.715Z,12.90
2023-06-25T06:20:47.742Z,13.40
2023-06-25T06:21:47.733Z,12.00
2023-06-25T06:22:47.650Z,13.00
2023-06-25T06:23:47.674Z,13.20
2023-06-25T06:24:47.660Z,12.20
2023-06-25T06:25:47.700Z,14.30
2023-06-25T06:26:47.617Z,12.60
2023-06-25T06:27:47.641Z,12.60
2023-06-25T06:28:47.606Z,11.40
2023-06-25T06:29:47.602Z,14.10
2023-06-25T06:30:47.690Z,12.60
2023-06-25T06:31:47.653Z,12.90
2023-06-25T06:32:47.707Z,12.80
2023-06-25T06:33:47.551Z,12.70
2023-06-25T06:34:47.559Z,12.10
2023-06-25T06:35:47.557Z,12.40
2023-06-25T06:36:47.642Z,12.10
2023-06-25T06:37:47.512Z,12.80
2023-06-25T06:38:47.608Z,12.20
2023-06-25T06:39:47.911Z,12.80
2023-06-25T06:40:47.495Z,12.60
2023-06-25T06:41:47.489Z,12.30
2023-06-25T06:42:47.508Z,11.90
2023-06-25T06:43:47.490Z,12.50
2023-06-25T06:44:47.554Z,13.10
2023-06-25T06:45:47.441Z,11.60
2023-06-25T06:46:47.503Z,12.50
2023-06-25T06:47:47.468Z,11.50
2023-06-25T06:48:47.512Z,12.00
2023-06-25T06:49:47.476Z,12.70
2023-06-25T06:50:47.400Z,12.10
2023-06-25T06:51:47.404Z,12.00
2023-06-25T06:52:47.417Z,12.90
2023-06-25T06:53:47.412Z,11.70
2023-06-25T06:54:47.373Z,13.80
2023-06-25T06:55:47.470Z,11.80
2023-06-25T06:56:47.373Z,11.50
2023-06-25T06:57:47.444Z,10.90
2023-06-25T06:58:47.408Z,10.90
2023-06-25T06:59:47.525Z,11.70
2023-06-25T07:00:47.332Z,13.10
2023-06-25T07:01:47.384Z,11.30
2023-06-25T07:02:47.333Z,12.60
2023-06-25T07:03:47.279Z,10.50
2023-06-25T07:04:47.340Z,11.40
2023-06-25T07:05:47.309Z,11.00
2023-06-25T07:06:47.317Z,11.70
2023-06-25T07:07:47.260Z,11.30
2023-06-25T07:08:47.276Z,12.20
2023-06-25T07:09:47.325Z,12.70
2023-06-25T07:10:47.326Z,12.00
2023-06-25T07:11:47.218Z,11.50
2023-06-25T07:12:47.212Z,10.80
2023-06-25T07:13:47.178Z,10.70
2023-06-25T07:14:47.191Z,13.80
2023-06-25T07:15:47.261Z,11.50
2023-06-25T07:16:47.221Z,10.40
2023-06-25T07:17:47.248Z,11.50
2023-06-25T07:18:47.142Z,11.00
2023-06-25T07:19:47.131Z,11.80
2023-06-25T07:20:47.199Z,11.40
2023-06-25T07:21:47.113Z,11.20
2023-06-25T07:22:47.173Z,10.90
2023-06-25T07:23:47.094Z,10.40
2023-06-25T07:24:47.085Z,10.80
2023-06-25T07:25:47.084Z,11.60
2023-06-25T07:26:47.093Z,11.30
2023-06-25T07:27:47.065Z,11.70
2023-06-25T07:28:47.142Z,10.50
2023-06-25T07:29:47.046Z,10.40
2023-06-25T07:30:47.067Z,11.20
2023-06-25T07:31:47.105Z,10.80
2023-06-25T07:32:47.032Z,10.10
2023-06-25T07:33:47.029Z,10.10
2023-06-25T07:34:47.005Z,10.30
2023-06-25T07:35:46.987Z,10.30
2023-06-25T07:36:46.968Z,10.90
2023-06-25T07:37:47.054Z,10.10
2023-06-25T07:38:46.980Z,10.70
2023-06-25T07:39:46.939Z,10.10
2023-06-25T07:40:46.979Z,11.20
2023-06-25T07:41:46.914Z,10.30
2023-06-25T07:42:47.012Z,11.00
2023-06-25T07:43:46.904Z,10.90
2023-06-25T07:44:56.444Z,10.20
2023-06-25T07:45:46.959Z,10.20
2023-06-25T07:46:46.897Z,10.20
2023-06-25T07:47:47.003Z,10.70
2023-06-25T07:48:46.850Z,10.70
2023-06-25T07:49:46.839Z,10.80
2023-06-25T07:50:46.904Z,10.10
2023-06-25T07:51:46.907Z,10.40
2023-06-25T07:52:46.840Z,12.00
2023-06-25T07:53:46.913Z,10.10
2023-06-25T07:54:46.816Z,12.10
2023-06-25T07:56:00.971Z,9.80
2023-06-25T07:56:46.811Z,11.20
2023-06-25T07:57:46.824Z,10.20
2023-06-25T07:58:46.858Z,11.00
2023-06-25T07:59:53.594Z,9.60
2023-06-25T08:00:46.752Z,11.00
2023-06-25T08:01:46.725Z,10.10
2023-06-25T08:02:46.888Z,11.00
2023-06-25T08:03:46.971Z,10.80
2023-06-25T08:04:46.755Z,10.80
2023-06-25T08:05:46.716Z,10.10
2023-06-25T08:06:46.707Z,10.50
2023-06-25T08:07:46.690Z,10.40
2023-06-25T08:08:46.752Z,10.10
2023-06-25T08:09:46.851Z,9.70
2023-06-25T08:10:46.635Z,10.30
2023-06-25T08:11:46.627Z,10.70
2023-06-25T08:12:46.624Z,10.40
2023-06-25T08:13:46.643Z,10.40
2023-06-25T08:14:46.702Z,10.30
2023-06-25T08:15:46.653Z,10.90
2023-06-25T08:16:46.689Z,9.90
2023-06-25T08:17:46.650Z,9.80
2023-06-25T08:18:46.576Z,11.30
2023-06-25T08:19:46.552Z,11.20
2023-06-25T08:20:46.624Z,10.20
2023-06-25T08:21:46.567Z,11.90
2023-06-25T08:22:46.540Z,11.80
2023-06-25T08:23:46.520Z,11.00
2023-06-25T08:24:46.517Z,11.10
2023-06-25T08:25:46.623Z,10.50
2023-06-25T08:26:46.504Z,10.40
2023-06-25T08:27:46.482Z,10.60
2023-06-25T08:28:46.496Z,9.90
2023-06-25T08:29:46.471Z,10.90
2023-06-25T08:30:46.578Z,11.10
2023-06-25T08:31:46.456Z,12.20
2023-06-25T08:32:46.517Z,10.30
2023-06-25T08:33:46.428Z,10.90
2023-06-25T08:34:46.442Z,10.00
2023-06-25T08:35:46.395Z,12.10
2023-06-25T08:36:46.471Z,9.60
2023-06-25T08:37:46.378Z,10.90
2023-06-25T08:38:46.370Z,10.90
2023-06-25T08:39:46.395Z,9.60
2023-06-25T08:40:46.342Z,11.30
2023-06-25T08:41:46.458Z,10.30
2023-06-25T08:42:46.360Z,10.30
2023-06-25T08:43:46.318Z,11.70
2023-06-25T08:44:46.324Z,10.20
2023-06-25T08:45:46.325Z,10.80
2023-06-25T08:46:46.404Z,10.20
2023-06-25T08:47:46.445Z,9.80
2023-06-25T08:48:46.341Z,10.70
2023-06-25T08:49:46.259Z,11.50
2023-06-25T08:50:46.272Z,10.90
2023-06-25T08:51:46.284Z,10.90
2023-06-25T08:52:46.304Z,10.50
2023-06-25T08:53:46.283Z,11.10
2023-06-25T08:54:46.226Z,11.20
2023-06-25T08:55:46.228Z,9.40
2023-06-25T08:56:46.178Z,10.90
2023-06-25T08:57:46.208Z,10.80
2023-06-25T08:58:46.211Z,9.70
2023-06-25T08:59:46.238Z,9.80
2023-06-25T09:00:46.168Z,11.20
2023-06-25T09:01:46.157Z,10.80
2023-06-25T09:02:46.194Z,10.50
2023-06-25T09:03:46.143Z,9.40
2023-06-25T09:04:46.185Z,9.80
2023-06-25T09:05:46.191Z,9.90
2023-06-25T09:07:03.244Z,10.40
2023-06-25T09:07:46.152Z,10.90
2023-06-25T09:08:46.061Z,10.80
2023-06-25T09:09:46.057Z,9.50
2023-06-25T09:10:46.062Z,11.60
2023-06-25T09:11:46.121Z,9.90
2023-06-25T09:12:46.020Z,11.00
2023-06-25T09:13:45.987Z,10.70
2023-06-25T09:14:46.083Z,10.80
2023-06-25T09:15:46.079Z,10.40
2023-06-25T09:16:45.997Z,10.80
2023-06-25T09:17:46.036Z,10.40
2023-06-25T09:18:46.000Z,11.20
2023-06-25T09:19:45.989Z,10.50
2023-06-25T09:20:46.029Z,11.40
2023-06-25T09:21:45.942Z,10.70
2023-06-25T09:22:46.011Z,10.70
2023-06-25T09:23:45.928Z,11.30
2023-06-25T09:24:45.926Z,11.20
2023-06-25T09:25:46.004Z,9.90
2023-06-25T09:26:45.932Z,9.70
2023-06-25T09:27:45.874Z,10.80
2023-06-25T09:28:45.859Z,10.60
2023-06-25T09:29:45.940Z,11.70
2023-06-25T09:30:45.901Z,10.40
2023-06-25T09:31:45.930Z,9.60
2023-06-25T09:32:47.185Z,10.00
2023-06-25T09:33:45.839Z,9.80
2023-06-25T09:34:45.806Z,9.80
2023-06-25T09:35:45.832Z,11.30
2023-06-25T09:36:45.879Z,10.10
2023-06-25T09:37:45.886Z,10.50
2023-06-25T09:38:45.785Z,12.80
2023-06-25T09:39:45.838Z,9.80
2023-06-25T09:40:45.753Z,10.90
2023-06-25T09:41:45.687Z,10.70
2023-06-25T09:42:45.768Z,10.40
2023-06-25T09:43:45.822Z,9.90
2023-06-25T09:44:47.749Z,11.10
2023-06-25T09:45:45.711Z,10.60
2023-06-25T09:46:45.777Z,10.30
2023-06-25T09:47:45.827Z,11.70
2023-06-25T09:48:45.696Z,10.60
2023-06-25T09:49:45.677Z,11.40
2023-06-25T09:50:47.084Z,9.50
2023-06-25T09:51:45.741Z,9.40
2023-06-25T09:52:45.642Z,11.20
2023-06-25T09:53:45.630Z,11.40
2023-06-25T09:54:45.625Z,11.50
2023-06-25T09:55:45.645Z,10.30
2023-06-25T09:56:45.617Z,11.10
2023-06-25T09:57:45.679Z,11.10
2023-06-25T09:58:45.594Z,11.10
2023-06-25T09:59:45.596Z,10.10
2023-06-25T10:00:45.587Z,10.00
2023-06-25T10:01:45.763Z,10.30
2023-06-25T10:02:45.869Z,10.60
2023-06-25T10:03:45.640Z,10.20
2023-06-25T10:04:45.669Z,10.50
2023-06-25T10:05:45.675Z,9.70
2023-06-25T10:06:45.559Z,10.40
2023-06-25T10:07:45.538Z,9.80
2023-06-25T10:08:45.529Z,9.70
2023-06-25T10:09:45.489Z,9.50
2023-06-25T10:10:45.585Z,10.30
2023-06-25T10:11:45.505Z,8.70
2023-06-25T10:12:45.493Z,9.40
2023-06-25T10:13:45.508Z,10.00
2023-06-25T10:14:45.474Z,9.80
2023-06-25T10:15:45.566Z,9.60
2023-06-25T10:16:45.426Z,10.40
2023-06-25T10:17:45.488Z,10.10
2023-06-25T10:18:45.513Z,10.00
2023-06-25T10:19:45.396Z,10.00
2023-06-25T10:20:45.484Z,10.50
2023-06-25T10:21:45.490Z,9.90
2023-06-25T10:22:45.412Z,9.20
2023-06-25T10:23:45.595Z,10.20
2023-06-25T10:24:45.370Z,11.70
2023-06-25T10:25:45.349Z,10.10
2023-06-25T10:26:45.410Z,10.00
2023-06-25T10:27:45.356Z,10.40
2023-06-25T10:28:45.321Z,10.00
2023-06-25T10:29:45.302Z,9.10
2023-06-25T10:30:45.403Z,9.80
2023-06-25T10:31:45.470Z,10.10
2023-06-25T10:32:45.332Z,9.20
2023-06-25T10:33:45.273Z,11.10
2023-06-25T10:34:45.265Z,9.80
2023-06-25T10:35:45.241Z,10.00
2023-06-25T10:36:45.254Z,9.60
2023-06-25T10:37:45.337Z,11.00
2023-06-25T10:38:45.246Z,11.30
2023-06-25T10:39:45.232Z,9.70
2023-06-25T10:40:45.231Z,10.50
2023-06-25T10:41:45.289Z,9.60
2023-06-25T10:42:45.258Z,10.00
2023-06-25T10:43:45.183Z,10.40
2023-06-25T10:44:45.186Z,9.80
2023-06-25T10:45:45.168Z,10.30
2023-06-25T10:46:45.268Z,10.10
2023-06-25T10:47:45.200Z,11.30
2023-06-25T10:48:45.162Z,10.10
2023-06-25T10:49:45.150Z,10.10
2023-06-25T10:50:45.113Z,10.20
2023-06-25T10:51:45.198Z,9.20
2023-06-25T10:52:45.185Z,10.20
2023-06-25T10:53:45.108Z,9.20
2023-06-25T10:54:45.100Z,10.20
2023-06-25T10:55:45.101Z,9.50
2023-06-25T10:56:46.313Z,11.20
2023-06-25T10:57:45.053Z,10.40
2023-06-25T10:58:45.146Z,11.50
2023-06-25T10:59:45.106Z,12.10
2023-06-25T11:00:45.108Z,10.10
2023-06-25T11:01:45.073Z,9.90
2023-06-25T11:02:45.085Z,9.80
2023-06-25T11:03:45.091Z,10.70
2023-06-25T11:04:45.057Z,10.40
2023-06-25T11:05:44.979Z,11.30
2023-06-25T11:06:45.093Z,9.70
2023-06-25T11:07:44.964Z,10.00
2023-06-25T11:08:44.939Z,10.30
2023-06-25T11:09:44.922Z,9.60
2023-06-25T11:10:45.009Z,10.50
2023-06-25T11:11:44.927Z,10.50
2023-06-25T11:12:44.903Z,11.20
2023-06-25T11:13:44.888Z,10.00
2023-06-25T11:14:44.948Z,10.00
2023-06-25T11:15:44.883Z,10.30
2023-06-25T11:16:44.850Z,10.00
2023-06-25T11:17:44.992Z,11.50
2023-06-25T11:18:44.834Z,11.40
2023-06-25T11:19:44.835Z,10.50
2023-06-25T11:20:44.883Z,10.90
2023-06-25T11:21:44.905Z,10.60
2023-06-25T11:22:44.795Z,9.60
2023-06-25T11:23:44.800Z,10.60
2023-06-25T11:24:44.802Z,9.30
2023-06-25T11:25:44.781Z,10.00
2023-06-25T11:26:44.849Z,10.50
2023-06-25T11:27:44.741Z,11.10
2023-06-25T11:28:44.756Z,9.40
2023-06-25T11:29:44.743Z,9.50
2023-06-25T11:30:44.838Z,9.90
2023-06-25T11:31:44.783Z,9.60
2023-06-25T11:32:44.786Z,9.20
2023-06-25T11:33:44.689Z,10.70
2023-06-25T11:34:44.707Z,10.00
2023-06-25T11:35:44.678Z,9.60
2023-06-25T11:36:44.687Z,9.10
2023-06-25T11:37:44.741Z,9.50
2023-06-25T11:38:44.643Z,10.20
2023-06-25T11:39:44.648Z,10.00
2023-06-25T11:40:44.660Z,10.30
2023-06-25T11:41:44.623Z,9.40
2023-06-25T11:42:44.710Z,10.10
2023-06-25T11:43:44.677Z,10.00
2023-06-25T11:44:44.603Z,10.20
2023-06-25T11:45:44.584Z,10.70
2023-06-25T11:46:44.644Z,10.00
2023-06-25T11:47:44.592Z,9.40
2023-06-25T11:48:44.562Z,10.40
2023-06-25T11:49:44.571Z,11.10
2023-06-25T11:50:44.547Z,8.40
2023-06-25T11:51:44.524Z,9.00
2023-06-25T11:52:44.657Z,10.50
2023-06-25T11:53:44.514Z,10.10
2023-06-25T11:54:44.520Z,10.70
2023-06-25T11:55:44.563Z,10.10
2023-06-25T11:56:44.490Z,10.30
2023-06-25T11:57:44.534Z,9.40
2023-06-25T11:58:44.464Z,9.60
2023-06-25T11:59:44.490Z,9.70
2023-06-25T12:00:45.436Z,10.60
2023-06-25T12:01:44.470Z,9.90
2023-06-25T12:02:49.613Z,10.00
2023-06-25T12:03:44.581Z,9.70
2023-06-25T12:04:44.399Z,9.70
2023-06-25T12:05:44.406Z,10.20
2023-06-25T12:06:44.436Z,10.70
2023-06-25T12:07:44.385Z,10.00
2023-06-25T12:08:44.475Z,10.20
2023-06-25T12:09:44.352Z,11.60
2023-06-25T12:10:44.372Z,10.40
2023-06-25T12:11:44.331Z,10.40
2023-06-25T12:12:44.315Z,10.50
2023-06-25T12:13:44.296Z,9.50
2023-06-25T12:14:44.366Z,10.20
2023-06-25T12:15:44.310Z,10.20
2023-06-25T12:16:44.283Z,9.30
2023-06-25T12:17:44.353Z,12.00
2023-06-25T12:18:44.251Z,14.40
2023-06-25T12:19:44.324Z,13.00
2023-06-25T12:20:44.238Z,11.50
2023-06-25T12:21:44.248Z,13.70
2023-06-25T12:22:44.230Z,13.30
2023-06-25T12:23:44.215Z,10.40
2023-06-25T12:24:44.290Z,10.40
2023-06-25T12:25:44.302Z,10.90
2023-06-25T12:26:44.188Z,13.70
2023-06-25T12:27:44.184Z,10.30
2023-06-25T12:28:44.159Z,9.50
2023-06-25T12:29:44.234Z,10.70
2023-06-25T12:30:44.150Z,12.40
2023-06-25T12:31:44.208Z,11.00
2023-06-25T12:32:44.154Z,11.00
2023-06-25T12:33:44.101Z,14.10
2023-06-25T12:34:44.183Z,10.60
2023-06-25T12:35:44.091Z,10.20
2023-06-25T12:36:44.171Z,9.90
2023-06-25T12:37:44.084Z,12.10
2023-06-25T12:38:44.087Z,10.00
2023-06-25T12:39:44.081Z,9.90
2023-06-25T12:40:44.921Z,10.50
2023-06-25T12:41:44.039Z,9.80
2023-06-25T12:42:44.045Z,10.60
2023-06-25T12:43:44.003Z,9.80
2023-06-25T12:44:43.997Z,10.20
2023-06-25T12:45:43.985Z,11.10
2023-06-25T12:46:44.106Z,11.20
2023-06-25T12:47:43.980Z,9.80
2023-06-25T12:48:43.959Z,10.40
2023-06-25T12:49:43.970Z,11.30
2023-06-25T12:50:44.038Z,10.80
2023-06-25T12:51:44.069Z,10.30
2023-06-25T12:52:44.039Z,10.60
2023-06-25T12:53:43.922Z,9.60
2023-06-25T12:54:43.945Z,10.60
2023-06-25T12:55:43.914Z,10.20
2023-06-25T12:56:43.970Z,10.20